createdAt,value
2023-04-26T00:02:55.066Z,7.00
2023-04-26T00:06:57.011Z,6.90
2023-04-26T00:10:58.200Z,6.90
2023-04-26T00:14:59.369Z,6.70
2023-04-26T00:19:01.911Z,6.70
2023-04-26T00:23:03.854Z,6.70
2023-04-26T00:27:06.963Z,6.60
2023-04-26T00:31:16.580Z,6.60
2023-04-26T00:35:17.916Z,6.50
2023-04-26T00:39:19.084Z,6.60
2023-04-26T00:43:20.302Z,6.40
2023-04-26T00:47:21.563Z,6.30
2023-04-26T00:51:22.915Z,6.30
2023-04-26T00:55:26.413Z,6.30
2023-04-26T00:59:27.646Z,6.20
2023-04-26T01:03:29.736Z,6.10
2023-04-26T01:07:32.883Z,6.10
2023-04-26T01:11:35.348Z,6.20
2023-04-26T01:15:36.736Z,6.20
2023-04-26T01:19:47.883Z,6.20
2023-04-26T01:23:50.002Z,6.20
2023-04-26T01:27:51.166Z,6.30
2023-04-26T01:31:52.380Z,6.20
2023-04-26T01:35:56.537Z,6.20
2023-04-26T01:39:57.692Z,6.00
2023-04-26T01:43:59.130Z,6.00
2023-04-26T01:48:00.330Z,5.90
2023-04-26T01:52:01.525Z,6.00
2023-04-26T01:56:02.872Z,5.90
2023-04-26T02:00:05.570Z,5.80
2023-04-26T02:04:06.778Z,5.70
2023-04-26T02:08:07.939Z,5.60
2023-04-26T02:12:09.127Z,5.80
2023-04-26T02:16:10.440Z,5.60
2023-04-26T02:20:11.791Z,5.40
2023-04-26T02:24:12.844Z,5.30
2023-04-26T02:28:15.437Z,5.20
2023-04-26T02:32:16.702Z,5.20
2023-04-26T02:36:17.885Z,5.10
2023-04-26T02:40:19.684Z,5.10
2023-04-26T02:44:20.949Z,5.10
2023-04-26T02:48:22.090Z,5.10
2023-04-26T02:52:23.256Z,5.10
2023-04-26T02:56:24.825Z,5.10
2023-04-26T03:00:27.079Z,5.10
2023-04-26T03:04:29.640Z,5.10
2023-04-26T03:08:30.797Z,5.10
2023-04-26T03:12:32.023Z,5.20
2023-04-26T03:16:37.015Z,5.20
2023-04-26T03:20:38.231Z,5.10
2023-04-26T03:24:39.287Z,4.90
2023-04-26T03:28:41.126Z,4.90
2023-04-26T03:32:42.314Z,4.80
2023-04-26T03:36:43.547Z,4.80
2023-04-26T03:40:44.893Z,4.80
2023-04-26T03:44:45.945Z,4.80
2023-04-26T03:48:47.110Z,4.90
2023-04-26T03:52:48.277Z,4.80
2023-04-26T03:56:49.430Z,4.70
2023-04-26T04:00:50.785Z,4.80
2023-04-26T04:04:52.274Z,4.70
2023-04-26T04:08:53.744Z,4.70
2023-04-26T04:12:55.153Z,4.70
2023-04-26T04:16:56.302Z,4.60
2023-04-26T04:20:57.491Z,4.60
2023-04-26T04:24:59.337Z,4.70
2023-04-26T04:29:02.332Z,4.80
2023-04-26T04:33:04.537Z,4.90
2023-04-26T04:37:05.642Z,4.70
2023-04-26T04:41:07.893Z,4.60
2023-04-26T04:45:09.627Z,4.70
2023-04-26T04:49:14.780Z,5.00
2023-04-26T04:53:16.805Z,5.20
2023-04-26T04:57:18.170Z,5.30
2023-04-26T05:01:19.552Z,5.40
2023-04-26T05:05:22.806Z,5.40
2023-04-26T05:09:23.939Z,5.60
2023-04-26T05:13:25.016Z,5.80
2023-04-26T05:17:26.213Z,6.20
2023-04-26T05:21:27.332Z,6.40
2023-04-26T05:25:28.491Z,6.50
2023-04-26T05:29:30.450Z,6.70
2023-04-26T05:33:31.611Z,6.90
2023-04-26T05:37:33.770Z,7.30
2023-04-26T05:41:34.921Z,7.60
2023-04-26T05:45:36.008Z,7.70
2023-04-26T05:49:37.137Z,7.90
2023-04-26T05:53:38.303Z,8.20
2023-04-26T05:57:39.786Z,8.50
2023-04-26T06:01:40.936Z,8.70
2023-04-26T06:05:42.112Z,8.80
2023-04-26T06:09:43.275Z,9.10
2023-04-26T06:13:44.839Z,9.40
2023-04-26T06:17:46.055Z,9.60
2023-04-26T06:21:48.075Z,9.40
2023-04-26T06:25:49.336Z,9.10
2023-04-26T06:29:51.028Z,9.50
2023-04-26T06:33:52.409Z,9.70
2023-04-26T06:37:53.769Z,10.00
2023-04-26T06:41:55.122Z,10.30
2023-04-26T06:45:56.307Z,10.40
2023-04-26T06:49:57.722Z,10.60
2023-04-26T06:54:00.581Z,10.10
2023-04-26T06:58:01.860Z,10.20
2023-04-26T07:02:03.283Z,10.40
2023-04-26T07:06:04.718Z,10.30
2023-04-26T07:10:07.552Z,10.40
2023-04-26T07:14:11.220Z,10.80
2023-04-26T07:18:12.344Z,10.60
2023-04-26T07:22:13.468Z,11.00
2023-04-26T07:26:14.525Z,11.20
2023-04-26T07:30:15.717Z,11.30
2023-04-26T07:34:16.881Z,11.90
2023-04-26T07:38:18.952Z,12.10
2023-04-26T07:42:20.144Z,12.00
2023-04-26T07:46:21.460Z,12.10
2023-04-26T07:50:24.000Z,12.40
2023-04-26T07:54:25.242Z,12.20
2023-04-26T07:58:26.402Z,12.40
2023-04-26T08:02:40.967Z,12.60
2023-04-26T08:06:30.637Z,12.70
2023-04-26T08:10:31.833Z,12.90
2023-04-26T08:14:34.925Z,12.70
2023-04-26T08:18:36.091Z,12.90
2023-04-26T08:22:37.270Z,13.20
2023-04-26T08:26:39.312Z,13.40
2023-04-26T08:30:40.501Z,13.50
2023-04-26T08:34:41.841Z,14.10
2023-04-26T08:38:43.002Z,14.60
2023-04-26T08:42:44.864Z,15.30
2023-04-26T08:47:05.242Z,15.20
2023-04-26T08:51:09.198Z,14.90
2023-04-26T08:55:15.670Z,14.70
2023-04-26T08:59:17.722Z,15.80
2023-04-26T09:03:20.290Z,16.40
2023-04-26T09:07:25.262Z,16.20
2023-04-26T09:11:26.421Z,16.10
2023-04-26T09:15:27.622Z,15.10
2023-04-26T09:19:36.969Z,14.70
2023-04-26T09:23:58.856Z,14.30
2023-04-26T09:28:00.965Z,14.10
2023-04-26T09:32:02.163Z,14.20
2023-04-26T09:36:12.701Z,14.50
2023-04-26T09:40:21.056Z,15.40
2023-04-26T09:44:23.749Z,15.70
2023-04-26T09:48:28.242Z,15.90
2023-04-26T09:52:29.426Z,16.00
2023-04-26T09:56:30.573Z,15.90
2023-04-26T10:00:32.365Z,15.70
2023-04-26T10:04:33.781Z,15.40
2023-04-26T10:08:35.864Z,15.20
2023-04-26T10:12:37.035Z,15.50
2023-04-26T10:16:38.548Z,15.80
2023-04-26T10:20:42.477Z,16.10
2023-04-26T10:24:44.463Z,16.30
2023-04-26T10:28:55.289Z,16.20
2023-04-26T10:32:59.350Z,16.60
2023-04-26T10:37:11.980Z,16.80
2023-04-26T10:41:34.234Z,17.40
2023-04-26T10:45:36.085Z,17.70
2023-04-26T10:49:46.284Z,18.40
2023-04-26T10:53:51.623Z,18.40
2023-04-26T10:57:53.793Z,19.00
2023-04-26T11:01:56.869Z,18.20
2023-04-26T11:05:58.557Z,18.10
2023-04-26T11:09:59.939Z,18.00
2023-04-26T11:14:01.389Z,18.10
2023-04-26T11:18:04.315Z,18.90
2023-04-26T11:22:07.398Z,19.40
2023-04-26T11:26:08.930Z,19.40
2023-04-26T11:30:11.729Z,18.70
2023-04-26T11:34:13.077Z,18.60
2023-04-26T11:38:15.076Z,18.60
2023-04-26T11:42:16.354Z,18.90
2023-04-26T11:46:20.063Z,19.30
2023-04-26T11:50:23.641Z,19.50
2023-04-26T11:54:33.349Z,19.40
2023-04-26T11:58:34.653Z,20.20
2023-04-26T12:02:36.571Z,20.90
2023-04-26T12:06:42.302Z,21.20
2023-04-26T12:10:46.067Z,21.70
2023-04-26T12:14:47.277Z,21.30
2023-04-26T12:18:52.811Z,20.50
2023-04-26T12:23:05.810Z,19.30
2023-04-26T12:27:07.312Z,19.50
2023-04-26T12:31:09.092Z,19.60
2023-04-26T12:35:10.236Z,18.80
2023-04-26T12:39:13.820Z,18.30
2023-04-26T12:43:16.350Z,17.70
2023-04-26T12:47:17.632Z,17.00
2023-04-26T12:51:18.983Z,16.50
2023-04-26T12:55:20.671Z,16.70
2023-04-26T12:59:21.820Z,17.30
2023-04-26T13:03:23.234Z,17.40
2023-04-26T13:07:25.204Z,17.10
2023-04-26T13:11:26.638Z,17.00
2023-04-26T13:15:30.861Z,17.40
2023-04-26T13:19:32.222Z,17.80
2023-04-26T13:23:33.395Z,18.20
2023-04-26T13:27:39.168Z,18.10
2023-04-26T13:31:40.450Z,18.20
2023-04-26T13:35:41.636Z,18.30
2023-04-26T13:39:43.139Z,18.60
2023-04-26T13:43:44.382Z,19.30
2023-04-26T13:47:45.853Z,19.60
2023-04-26T13:51:47.044Z,19.30
2023-04-26T13:55:48.338Z,19.10
2023-04-26T13:59:49.520Z,19.00
2023-04-26T14:03:52.245Z,18.60
2023-04-26T14:07:55.189Z,18.70
2023-04-26T14:12:07.194Z,19.10
2023-04-26T14:16:00.370Z,19.80
2023-04-26T14:20:01.539Z,20.10
2023-04-26T14:24:03.186Z,20.40
2023-04-26T14:28:07.376Z,20.50
2023-04-26T14:32:08.808Z,20.60
2023-04-26T14:36:10.791Z,20.30
2023-04-26T14:40:15.698Z,20.00
2023-04-26T14:44:16.865Z,18.70
2023-04-26T14:48:19.819Z,18.50
2023-04-26T14:52:23.434Z,18.20
2023-04-26T14:56:24.561Z,17.90
2023-04-26T15:00:32.646Z,17.80
2023-04-26T15:04:40.844Z,17.60
2023-04-26T15:08:43.706Z,17.60
2023-04-26T15:12:45.279Z,18.00
2023-04-26T15:16:46.743Z,18.10
2023-04-26T15:20:48.026Z,18.80
2023-04-26T15:24:50.292Z,19.10
2023-04-26T15:28:51.586Z,19.00
2023-04-26T15:32:52.747Z,19.40
2023-04-26T15:36:53.885Z,19.40
2023-04-26T15:40:55.170Z,19.30
2023-04-26T15:44:56.491Z,19.00
2023-04-26T15:48:57.641Z,18.80
2023-04-26T15:52:58.824Z,18.50
2023-04-26T15:57:00.035Z,18.20
2023-04-26T16:01:01.210Z,18.10
2023-04-26T16:05:03.870Z,18.00
2023-04-26T16:09:17.260Z,18.10
2023-04-26T16:13:10.333Z,18.20
2023-04-26T16:17:11.687Z,18.20
2023-04-26T16:21:12.954Z,18.20
2023-04-26T16:25:15.532Z,18.10
2023-04-26T16:29:17.213Z,18.00
2023-04-26T16:33:21.203Z,18.00
2023-04-26T16:37:21.314Z,17.80
2023-04-26T16:41:22.496Z,17.80
2023-04-26T16:45:23.751Z,17.70
2023-04-26T16:49:25.388Z,17.70
2023-04-26T16:53:26.748Z,17.60
2023-04-26T16:57:28.504Z,17.50
2023-04-26T17:01:29.773Z,17.20
2023-04-26T17:05:31.029Z,17.50
2023-04-26T17:09:32.268Z,17.80
2023-04-26T17:13:33.444Z,17.30
2023-04-26T17:17:34.900Z,17.10
2023-04-26T17:21:36.002Z,16.80
2023-04-26T17:25:37.176Z,16.40
2023-04-26T17:29:38.449Z,15.80
2023-04-26T17:33:39.736Z,15.50
2023-04-26T17:37:42.777Z,14.80
2023-04-26T17:41:43.942Z,14.40
2023-04-26T17:45:45.112Z,14.10
2023-04-26T17:49:46.272Z,13.90
2023-04-26T17:53:47.403Z,13.50
2023-04-26T17:57:48.580Z,13.50
2023-04-26T18:01:49.944Z,13.50
2023-04-26T18:05:53.074Z,13.60
2023-04-26T18:09:54.240Z,13.50
2023-04-26T18:13:55.419Z,13.60
2023-04-26T18:17:56.760Z,13.70
2023-04-26T18:21:57.935Z,13.70
2023-04-26T18:25:59.071Z,13.60
2023-04-26T18:30:00.672Z,13.60
2023-04-26T18:34:03.088Z,13.60
2023-04-26T18:38:04.693Z,13.60
2023-04-26T18:42:06.760Z,13.50
2023-04-26T18:46:10.784Z,13.50
2023-04-26T18:50:13.942Z,13.50
2023-04-26T18:54:15.948Z,13.40
2023-04-26T18:58:17.227Z,13.30
2023-04-26T19:02:18.770Z,13.20
2023-04-26T19:06:20.917Z,13.20
2023-04-26T19:10:21.997Z,13.10
2023-04-26T19:14:23.190Z,13.10
2023-04-26T19:18:24.547Z,13.10
2023-04-26T19:22:26.314Z,13.10
2023-04-26T19:26:27.495Z,13.00
2023-04-26T19:30:28.664Z,13.10
2023-04-26T19:34:31.763Z,13.10
2023-04-26T19:38:32.953Z,13.00
2023-04-26T19:42:34.128Z,12.90
2023-04-26T19:46:36.204Z,12.70
2023-04-26T19:50:41.804Z,12.70
2023-04-26T19:54:42.989Z,12.60
2023-04-26T19:58:44.260Z,12.50
2023-04-26T20:02:45.620Z,12.30
2023-04-26T20:06:46.819Z,12.10
2023-04-26T20:10:47.976Z,12.00
2023-04-26T20:14:49.557Z,12.00
2023-04-26T20:18:50.800Z,12.00
2023-04-26T20:22:51.979Z,12.00
2023-04-26T20:26:56.169Z,12.00
2023-04-26T20:30:59.482Z,11.90
2023-04-26T20:35:00.766Z,11.90
2023-04-26T20:39:02.087Z,11.80
2023-04-26T20:43:03.624Z,11.80
2023-04-26T20:47:05.156Z,11.80
2023-04-26T20:51:06.350Z,11.60
2023-04-26T20:55:07.825Z,11.40
2023-04-26T20:59:09.601Z,11.40
2023-04-26T21:03:12.015Z,11.60
2023-04-26T21:07:13.213Z,11.60
2023-04-26T21:11:14.402Z,11.50
2023-04-26T21:15:17.317Z,11.10
2023-04-26T21:19:18.475Z,10.90
2023-04-26T21:23:20.329Z,10.70
2023-04-26T21:27:24.745Z,10.50
2023-04-26T21:31:25.995Z,10.50
2023-04-26T21:35:27.238Z,10.50
2023-04-26T21:39:28.400Z,10.40
2023-04-26T21:43:29.844Z,10.30
2023-04-26T21:47:32.627Z,10.40
2023-04-26T21:51:33.858Z,10.20
2023-04-26T21:55:35.017Z,10.20
2023-04-26T21:59:36.191Z,10.10
2023-04-26T22:03:37.992Z,9.90
2023-04-26T22:07:39.497Z,9.90
2023-04-26T22:11:40.672Z,9.90
2023-04-26T22:15:44.971Z,10.00
2023-04-26T22:19:46.133Z,9.90
2023-04-26T22:23:47.295Z,9.90
2023-04-26T22:27:48.507Z,9.90
2023-04-26T22:31:50.075Z,9.90
2023-04-26T22:35:53.208Z,9.90
2023-04-26T22:39:55.756Z,9.90
2023-04-26T22:43:56.933Z,9.90
2023-04-26T22:47:58.179Z,10.00
2023-04-26T22:52:07.815Z,9.90
2023-04-26T22:56:02.683Z,10.10
2023-04-26T23:00:05.656Z,10.10
2023-04-26T23:04:06.973Z,9.90
2023-04-26T23:08:08.114Z,10.00
2023-04-26T23:12:09.270Z,10.10
2023-04-26T23:16:10.455Z,10.20
2023-04-26T23:20:12.526Z,10.30
2023-04-26T23:24:14.437Z,10.30
2023-04-26T23:28:15.860Z,10.20
2023-04-26T23:32:16.995Z,10.30
2023-04-26T23:36:18.159Z,10.40
2023-04-26T23:40:19.332Z,10.50
2023-04-26T23:44:20.499Z,10.50
2023-04-26T23:48:21.643Z,10.40
2023-04-26T23:52:22.713Z,10.50
2023-04-26T23:56:23.853Z,10.50
